sensor_id;sensor_type;location;lat;lon;timestamp;pressure;altitude;pressure_sealevel;temperature;humidity
26697;BME280;14312;52.614;13.496;2023-04-28T00:00:09;101313.97;;;7.08;45.79
26697;BME280;14312;52.614;13.496;2023-04-28T00:02:56;101310.72;;;7.06;45.67
26697;BME280;14312;52.614;13.496;2023-04-28T00:05:42;101314.78;;;7.02;46.08
26697;BME280;14312;52.614;13.496;2023-04-28T00:08:28;101304.19;;;6.95;45.85
26697;BME280;14312;52.614;13.496;2023-04-28T00:11:14;101308.84;;;6.93;45.89
26697;BME280;14312;52.614;13.496;2023-04-28T00:14:00;101309.03;;;6.92;46.06
26697;BME280;14312;52.614;13.496;2023-04-28T00:16:46;101304.94;;;6.83;46.18
26697;BME280;14312;52.614;13.496;2023-04-28T00:19:32;101303.91;;;6.84;46.32
26697;BME280;14312;52.614;13.496;2023-04-28T00:22:19;101301.25;;;6.84;46.47
26697;BME280;14312;52.614;13.496;2023-04-28T00:25:05;101305.97;;;6.82;46.45
26697;BME280;14312;52.614;13.496;2023-04-28T00:27:52;101305.16;;;6.81;46.57
26697;BME280;14312;52.614;13.496;2023-04-28T00:30:37;101305.34;;;6.80;46.41
26697;BME280;14312;52.614;13.496;2023-04-28T00:33:23;101300.44;;;6.77;46.33
26697;BME280;14312;52.614;13.496;2023-04-28T00:36:09;101305.31;;;6.73;46.58
26697;BME280;14312;52.614;13.496;2023-04-28T00:38:56;101317.75;;;6.73;46.46
26697;BME280;14312;52.614;13.496;2023-04-28T00:41:42;101312.22;;;6.67;46.37
26697;BME280;14312;52.614;13.496;2023-04-28T00:44:28;101311.78;;;6.64;46.54
26697;BME280;14312;52.614;13.496;2023-04-28T00:47:16;101310.56;;;6.60;46.96
26697;BME280;14312;52.614;13.496;2023-04-28T00:50:03;101294.25;;;6.56;46.75
26697;BME280;14312;52.614;13.496;2023-04-28T00:52:52;101287.72;;;6.52;46.70
26697;BME280;14312;52.614;13.496;2023-04-28T00:55:39;101295.03;;;6.50;46.86
26697;BME280;14312;52.614;13.496;2023-04-28T00:58:25;101302.34;;;6.48;47.08
26697;BME280;14312;52.614;13.496;2023-04-28T01:01:12;101292.16;;;6.45;47.11
26697;BME280;14312;52.614;13.496;2023-04-28T01:03:58;101285.22;;;6.44;47.25
26697;BME280;14312;52.614;13.496;2023-04-28T01:06:44;101281.56;;;6.45;47.16
26697;BME280;14312;52.614;13.496;2023-04-28T01:09:31;101294.19;;;6.43;47.06
26697;BME280;14312;52.614;13.496;2023-04-28T01:12:17;101289.72;;;6.44;47.19
26697;BME280;14312;52.614;13.496;2023-04-28T01:15:03;101283.59;;;6.43;47.28
26697;BME280;14312;52.614;13.496;2023-04-28T01:17:49;101286.03;;;6.38;47.25
26697;BME280;14312;52.614;13.496;2023-04-28T01:20:35;101275.41;;;6.32;46.98
26697;BME280;14312;52.614;13.496;2023-04-28T01:23:21;101283.94;;;6.34;47.11
26697;BME280;14312;52.614;13.496;2023-04-28T01:26:07;101279.06;;;6.31;47.15
26697;BME280;14312;52.614;13.496;2023-04-28T01:28:53;101282.28;;;6.26;47.27
26697;BME280;14312;52.614;13.496;2023-04-28T01:31:39;101276.75;;;6.21;47.44
26697;BME280;14312;52.614;13.496;2023-04-28T01:34:25;101277.75;;;6.20;47.09
26697;BME280;14312;52.614;13.496;2023-04-28T01:37:11;101273.69;;;6.17;47.50
26697;BME280;14312;52.614;13.496;2023-04-28T01:39:57;101275.53;;;6.17;47.57
26697;BME280;14312;52.614;13.496;2023-04-28T01:42:44;101276.53;;;6.16;47.93
26697;BME280;14312;52.614;13.496;2023-04-28T01:45:30;101269.59;;;6.15;47.55
26697;BME280;14312;52.614;13.496;2023-04-28T01:48:16;101265.94;;;6.16;47.94
26697;BME280;14312;52.614;13.496;2023-04-28T01:51:02;101261.47;;;6.16;47.87
26697;BME280;14312;52.614;13.496;2023-04-28T01:53:48;101263.13;;;6.17;48.07
26697;BME280;14312;52.614;13.496;2023-04-28T01:56:34;101264.53;;;6.20;47.70
26697;BME280;14312;52.614;13.496;2023-04-28T01:59:20;101260.25;;;6.19;47.87
26697;BME280;14312;52.614;13.496;2023-04-28T02:02:05;101249.47;;;6.20;48.04
26697;BME280;14312;52.614;13.496;2023-04-28T02:04:51;101254.59;;;6.22;48.04
26697;BME280;14312;52.614;13.496;2023-04-28T02:07:37;101253.56;;;6.23;48.21
26697;BME280;14312;52.614;13.496;2023-04-28T02:10:23;101256.84;;;6.25;48.08
26697;BME280;14312;52.614;13.496;2023-04-28T02:13:09;101254.59;;;6.22;48.05
26697;BME280;14312;52.614;13.496;2023-04-28T02:15:59;101248.91;;;6.25;48.42
26697;BME280;14312;52.614;13.496;2023-04-28T02:18:45;101252.34;;;6.25;48.14
26697;BME280;14312;52.614;13.496;2023-04-28T02:21:31;101259.50;;;6.25;47.69
26697;BME280;14312;52.614;13.496;2023-04-28T02:24:17;101251.75;;;6.23;48.12
26697;BME280;14312;52.614;13.496;2023-04-28T02:27:03;101249.28;;;6.22;48.39
26697;BME280;14312;52.614;13.496;2023-04-28T02:29:50;101253.75;;;6.21;48.06
26697;BME280;14312;52.614;13.496;2023-04-28T02:32:37;101251.31;;;6.20;47.98
26697;BME280;14312;52.614;13.496;2023-04-28T02:35:23;101250.91;;;6.16;47.77
26697;BME280;14312;52.614;13.496;2023-04-28T02:38:09;101245.16;;;6.13;47.94
26697;BME280;14312;52.614;13.496;2023-04-28T02:40:59;101252.50;;;6.11;48.29
26697;BME280;14312;52.614;13.496;2023-04-28T02:43:45;101252.06;;;6.07;48.09
26697;BME280;14312;52.614;13.496;2023-04-28T02:46:31;101246.34;;;6.04;48.17
26697;BME280;14312;52.614;13.496;2023-04-28T02:49:17;101243.44;;;5.99;48.17
26697;BME280;14312;52.614;13.496;2023-04-28T02:52:03;101249.16;;;5.96;48.42
26697;BME280;14312;52.614;13.496;2023-04-28T02:54:49;101237.13;;;5.93;48.25
26697;BME280;14312;52.614;13.496;2023-04-28T02:57:39;101235.66;;;5.90;48.58
26697;BME280;14312;52.614;13.496;2023-04-28T03:00:25;101236.72;;;5.89;48.48
26697;BME280;14312;52.614;13.496;2023-04-28T03:03:11;101243.34;;;5.85;48.68
26697;BME280;14312;52.614;13.496;2023-04-28T03:05:57;101241.38;;;5.87;48.76
26697;BME280;14312;52.614;13.496;2023-04-28T03:08:43;101235.41;;;5.85;48.60
26697;BME280;14312;52.614;13.496;2023-04-28T03:11:29;101232.13;;;5.83;48.59
26697;BME280;14312;52.614;13.496;2023-04-28T03:14:15;101229.50;;;5.83;48.62
26697;BME280;14312;52.614;13.496;2023-04-28T03:17:01;101222.59;;;5.82;48.85
26697;BME280;14312;52.614;13.496;2023-04-28T03:19:47;101224.19;;;5.83;48.82
26697;BME280;14312;52.614;13.496;2023-04-28T03:22:33;101227.47;;;5.85;48.86
26697;BME280;14312;52.614;13.496;2023-04-28T03:25:19;101219.53;;;5.85;48.84
26697;BME280;14312;52.614;13.496;2023-04-28T03:28:05;101219.34;;;5.87;49.03
26697;BME280;14312;52.614;13.496;2023-04-28T03:30:51;101221.84;;;5.88;48.88
26697;BME280;14312;52.614;13.496;2023-04-28T03:33:37;101223.69;;;5.88;48.74
26697;BME280;14312;52.614;13.496;2023-04-28T03:36:23;101220.84;;;5.89;48.82
26697;BME280;14312;52.614;13.496;2023-04-28T03:39:08;101206.78;;;5.89;48.99
26697;BME280;14312;52.614;13.496;2023-04-28T03:41:54;101215.34;;;5.91;49.09
26697;BME280;14312;52.614;13.496;2023-04-28T03:44:40;101212.50;;;5.93;49.00
26697;BME280;14312;52.614;13.496;2023-04-28T03:47:26;101220.44;;;5.93;49.03
26697;BME280;14312;52.614;13.496;2023-04-28T03:50:13;101208.84;;;5.94;49.12
26697;BME280;14312;52.614;13.496;2023-04-28T03:52:59;101206.19;;;5.94;49.17
26697;BME280;14312;52.614;13.496;2023-04-28T03:55:45;101204.78;;;5.98;49.19
26697;BME280;14312;52.614;13.496;2023-04-28T03:58:31;101202.78;;;6.00;49.00
26697;BME280;14312;52.614;13.496;2023-04-28T04:01:17;101205.22;;;6.01;49.23
26697;BME280;14312;52.614;13.496;2023-04-28T04:04:03;101206.69;;;6.04;49.12
26697;BME280;14312;52.614;13.496;2023-04-28T04:06:50;101203.63;;;6.07;49.51
26697;BME280;14312;52.614;13.496;2023-04-28T04:09:36;101194.28;;;6.11;49.40
26697;BME280;14312;52.614;13.496;2023-04-28T04:12:22;101191.25;;;6.14;49.42
26697;BME280;14312;52.614;13.496;2023-04-28T04:15:08;101193.50;;;6.17;49.44
26697;BME280;14312;52.614;13.496;2023-04-28T04:17:55;101191.91;;;6.22;49.53
26697;BME280;14312;52.614;13.496;2023-04-28T04:20:41;101188.03;;;6.25;49.31
26697;BME280;14312;52.614;13.496;2023-04-28T04:23:26;101188.25;;;6.30;49.40
26697;BME280;14312;52.614;13.496;2023-04-28T04:26:12;101187.84;;;6.33;49.68
26697;BME280;14312;52.614;13.496;2023-04-28T04:28:58;101185.44;;;6.38;49.22
26697;BME280;14312;52.614;13.496;2023-04-28T04:31:44;101187.69;;;6.41;49.52
26697;BME280;14312;52.614;13.496;2023-04-28T04:34:30;101181.00;;;6.45;49.29
26697;BME280;14312;52.614;13.496;2023-04-28T04:37:16;101180.56;;;6.48;49.40
26697;BME280;14312;52.614;13.496;2023-04-28T04:40:04;101183.47;;;6.53;49.57
26697;BME280;14312;52.614;13.496;2023-04-28T04:42:50;101176.72;;;6.57;49.42
26697;BME280;14312;52.614;13.496;2023-04-28T04:45:36;101176.13;;;6.62;49.41
26697;BME280;14312;52.614;13.496;2023-04-28T04:48:22;101178.19;;;6.66;49.59
26697;BME280;14312;52.614;13.496;2023-04-28T04:51:08;101174.09;;;6.71;49.79
26697;BME280;14312;52.614;13.496;2023-04-28T04:53:54;101172.50;;;6.76;49.46
26697;BME280;14312;52.614;13.496;2023-04-28T04:56:40;101174.56;;;6.81;49.71
26697;BME280;14312;52.614;13.496;2023-04-28T04:59:27;101174.75;;;6.86;49.83
26697;BME280;14312;52.614;13.496;2023-04-28T05:02:13;101169.66;;;6.91;49.98
26697;BME280;14312;52.614;13.496;2023-04-28T05:04:59;101165.59;;;6.95;49.95
26697;BME280;14312;52.614;13.496;2023-04-28T05:07:45;101169.06;;;7.02;50.11
26697;BME280;14312;52.614;13.496;2023-04-28T05:10:31;101167.22;;;7.09;49.99
26697;BME280;14312;52.614;13.496;2023-04-28T05:13:17;101166.00;;;7.18;50.46
26697;BME280;14312;52.614;13.496;2023-04-28T05:16:03;101160.28;;;7.28;50.14
26697;BME280;14312;52.614;13.496;2023-04-28T05:18:49;101159.88;;;7.37;50.38
26697;BME280;14312;52.614;13.496;2023-04-28T05:21:36;101161.06;;;7.48;50.28
26697;BME280;14312;52.614;13.496;2023-04-28T05:24:22;101169.25;;;7.60;50.57
26697;BME280;14312;52.614;13.496;2023-04-28T05:27:10;101159.59;;;7.72;50.70
26697;BME280;14312;52.614;13.496;2023-04-28T05:29:56;101159.56;;;7.85;50.65
26697;BME280;14312;52.614;13.496;2023-04-28T05:32:42;101154.41;;;7.97;50.93
26697;BME280;14312;52.614;13.496;2023-04-28T05:35:28;101150.09;;;8.09;50.90
26697;BME280;14312;52.614;13.496;2023-04-28T05:38:16;101156.75;;;8.24;51.20
26697;BME280;14312;52.614;13.496;2023-04-28T05:41:02;101147.72;;;8.39;50.97
26697;BME280;14312;52.614;13.496;2023-04-28T05:43:48;101150.91;;;8.54;51.17
26697;BME280;14312;52.614;13.496;2023-04-28T05:46:35;101143.47;;;8.69;51.06
26697;BME280;14312;52.614;13.496;2023-04-28T05:49:21;101134.38;;;8.83;51.00
26697;BME280;14312;52.614;13.496;2023-04-28T05:52:07;101135.88;;;8.97;51.17
26697;BME280;14312;52.614;13.496;2023-04-28T05:54:53;101132.91;;;9.12;51.18
26697;BME280;14312;52.614;13.496;2023-04-28T05:57:39;101132.78;;;9.25;50.95
26697;BME280;14312;52.614;13.496;2023-04-28T06:00:25;101132.22;;;9.41;51.42
26697;BME280;14312;52.614;13.496;2023-04-28T06:03:11;101128.75;;;9.59;51.32
26697;BME280;14312;52.614;13.496;2023-04-28T06:05:59;101120.34;;;9.80;51.31
26697;BME280;14312;52.614;13.496;2023-04-28T06:08:45;101122.53;;;10.02;51.14
26697;BME280;14312;52.614;13.496;2023-04-28T06:11:32;101113.75;;;10.19;50.99
26697;BME280;14312;52.614;13.496;2023-04-28T06:14:18;101117.16;;;10.38;50.64
26697;BME280;14312;52.614;13.496;2023-04-28T06:17:04;101115.72;;;10.54;50.63
26697;BME280;14312;52.614;13.496;2023-04-28T06:19:50;101116.09;;;10.69;50.76
26697;BME280;14312;52.614;13.496;2023-04-28T06:22:39;101119.97;;;10.85;50.70
26697;BME280;14312;52.614;13.496;2023-04-28T06:25:26;101116.63;;;11.01;50.46
26697;BME280;14312;52.614;13.496;2023-04-28T06:28:12;101108.72;;;11.18;50.47
26697;BME280;14312;52.614;13.496;2023-04-28T06:30:59;101109.91;;;11.33;50.29
26697;BME280;14312;52.614;13.496;2023-04-28T06:33:45;101107.34;;;11.50;50.12
26697;BME280;14312;52.614;13.496;2023-04-28T06:36:31;101095.09;;;11.66;49.97
26697;BME280;14312;52.614;13.496;2023-04-28T06:39:17;101097.06;;;11.82;49.55
26697;BME280;14312;52.614;13.496;2023-04-28T06:42:04;101094.72;;;11.97;49.55
26697;BME280;14312;52.614;13.496;2023-04-28T06:44:50;101082.47;;;12.13;49.17
26697;BME280;14312;52.614;13.496;2023-04-28T06:47:36;101088.31;;;12.27;48.91
26697;BME280;14312;52.614;13.496;2023-04-28T06:50:22;101083.50;;;12.40;48.70
26697;BME280;14312;52.614;13.496;2023-04-28T06:53:08;101076.22;;;12.52;48.37
26697;BME280;14312;52.614;13.496;2023-04-28T06:55:54;101082.88;;;12.67;48.58
26697;BME280;14312;52.614;13.496;2023-04-28T06:58:41;101076.94;;;12.81;48.53
26697;BME280;14312;52.614;13.496;2023-04-28T07:01:27;101064.88;;;12.95;48.11
26697;BME280;14312;52.614;13.496;2023-04-28T07:04:13;101075.22;;;13.09;48.04
26697;BME280;14312;52.614;13.496;2023-04-28T07:06:59;101065.00;;;13.22;47.80
26697;BME280;14312;52.614;13.496;2023-04-28T07:09:45;101071.38;;;13.38;47.22
26697;BME280;14312;52.614;13.496;2023-04-28T07:12:31;101065.66;;;13.51;46.62
26697;BME280;14312;52.614;13.496;2023-04-28T07:15:17;101059.41;;;13.62;46.31
26697;BME280;14312;52.614;13.496;2023-04-28T07:18:03;101066.47;;;13.73;45.97
26697;BME280;14312;52.614;13.496;2023-04-28T07:20:49;101056.72;;;13.84;45.23
26697;BME280;14312;52.614;13.496;2023-04-28T07:23:35;101053.59;;;13.92;45.52
26697;BME280;14312;52.614;13.496;2023-04-28T07:26:23;101052.88;;;14.02;45.04
26697;BME280;14312;52.614;13.496;2023-04-28T07:29:09;101047.63;;;14.12;45.17
26697;BME280;14312;52.614;13.496;2023-04-28T07:31:59;101045.31;;;14.21;44.92
26697;BME280;14312;52.614;13.496;2023-04-28T07:34:45;101044.31;;;14.32;44.71
26697;BME280;14312;52.614;13.496;2023-04-28T07:37:31;101042.56;;;14.42;44.47
26697;BME280;14312;52.614;13.496;2023-04-28T07:40:18;101038.34;;;14.52;44.58
26697;BME280;14312;52.614;13.496;2023-04-28T07:43:04;101029.59;;;14.61;44.24
26697;BME280;14312;52.614;13.496;2023-04-28T07:45:50;101030.47;;;14.72;43.40
26697;BME280;14312;52.614;13.496;2023-04-28T07:48:36;101027.31;;;14.80;43.27
26697;BME280;14312;52.614;13.496;2023-04-28T07:51:22;101021.72;;;14.86;42.92
26697;BME280;14312;52.614;13.496;2023-04-28T07:54:08;101026.59;;;14.95;42.87
26697;BME280;14312;52.614;13.496;2023-04-28T07:56:55;101024.50;;;15.02;42.93
26697;BME280;14312;52.614;13.496;2023-04-28T07:59:42;101016.75;;;15.10;43.36
26697;BME280;14312;52.614;13.496;2023-04-28T08:02:28;101017.59;;;15.21;43.23
26697;BME280;14312;52.614;13.496;2023-04-28T08:05:15;101018.22;;;15.33;43.04
26697;BME280;14312;52.614;13.496;2023-04-28T08:08:01;101018.81;;;15.45;42.34
26697;BME280;14312;52.614;13.496;2023-04-28T08:10:50;101015.91;;;15.57;41.95
26697;BME280;14312;52.614;13.496;2023-04-28T08:13:37;101008.97;;;15.66;42.11
26697;BME280;14312;52.614;13.496;2023-04-28T08:16:23;101005.78;;;15.74;42.11
26697;BME280;14312;52.614;13.496;2023-04-28T08:19:09;101010.09;;;15.85;41.81
26697;BME280;14312;52.614;13.496;2023-04-28T08:21:55;100995.31;;;15.93;41.32
26697;BME280;14312;52.614;13.496;2023-04-28T08:24:41;100998.56;;;16.00;41.03
26697;BME280;14312;52.614;13.496;2023-04-28T08:27:27;100994.03;;;16.05;41.14
26697;BME280;14312;52.614;13.496;2023-04-28T08:30:13;100991.31;;;16.11;41.46
26697;BME280;14312;52.614;13.496;2023-04-28T08:32:59;100989.72;;;16.20;41.28
26697;BME280;14312;52.614;13.496;2023-04-28T08:35:45;100984.34;;;16.30;41.40
26697;BME280;14312;52.614;13.496;2023-04-28T08:38:31;100985.66;;;16.42;41.54
26697;BME280;14312;52.614;13.496;2023-04-28T08:41:17;100993.72;;;16.58;41.89
26697;BME280;14312;52.614;13.496;2023-04-28T08:44:08;100991.34;;;16.76;41.84
26697;BME280;14312;52.614;13.496;2023-04-28T08:46:55;100983.72;;;16.99;41.90
26697;BME280;14312;52.614;13.496;2023-04-28T08:49:44;100983.13;;;17.22;41.85
26697;BME280;14312;52.614;13.496;2023-04-28T08:52:31;100979.22;;;17.48;41.81
26697;BME280;14312;52.614;13.496;2023-04-28T08:55:17;100975.34;;;17.75;41.03
26697;BME280;14312;52.614;13.496;2023-04-28T08:58:04;100968.16;;;17.99;40.31
26697;BME280;14312;52.614;13.496;2023-04-28T09:00:51;100969.13;;;18.18;40.29
26697;BME280;14312;52.614;13.496;2023-04-28T09:03:37;100962.22;;;18.36;40.35
26697;BME280;14312;52.614;13.496;2023-04-28T09:06:23;100964.50;;;18.53;40.14
26697;BME280;14312;52.614;13.496;2023-04-28T09:09:22;100953.53;;;18.73;40.29
26697;BME280;14312;52.614;13.496;2023-04-28T09:12:09;100950.94;;;18.87;40.40
26697;BME280;14312;52.614;13.496;2023-04-28T09:14:57;100946.63;;;19.09;40.16
26697;BME280;14312;52.614;13.496;2023-04-28T09:17:50;100948.78;;;19.31;40.18
26697;BME280;14312;52.614;13.496;2023-04-28T09:20:37;100946.13;;;19.50;40.09
26697;BME280;14312;52.614;13.496;2023-04-28T09:23:23;100933.41;;;19.69;40.01
26697;BME280;14312;52.614;13.496;2023-04-28T09:26:09;100935.31;;;19.87;39.42
26697;BME280;14312;52.614;13.496;2023-04-28T09:29:10;100928.75;;;20.07;38.94
26697;BME280;14312;52.614;13.496;2023-04-28T09:32:17;100926.00;;;20.26;39.47
26697;BME280;14312;52.614;13.496;2023-04-28T09:35:03;100929.88;;;20.39;38.99
26697;BME280;14312;52.614;13.496;2023-04-28T09:37:57;100922.25;;;20.54;38.42
26697;BME280;14312;52.614;13.496;2023-04-28T09:41:00;100904.13;;;20.68;38.09
26697;BME280;14312;52.614;13.496;2023-04-28T09:43:46;100906.13;;;20.77;38.29
26697;BME280;14312;52.614;13.496;2023-04-28T09:46:32;100901.63;;;20.86;38.09
26697;BME280;14312;52.614;13.496;2023-04-28T09:49:18;100900.41;;;20.92;37.89
26697;BME280;14312;52.614;13.496;2023-04-28T09:52:13;100900.00;;;20.98;37.18
26697;BME280;14312;52.614;13.496;2023-04-28T09:57:48;100888.34;;;20.98;37.33
26697;BME280;14312;52.614;13.496;2023-04-28T10:00:34;100887.66;;;21.06;37.63
26697;BME280;14312;52.614;13.496;2023-04-28T10:03:26;100887.53;;;21.11;37.23
26697;BME280;14312;52.614;13.496;2023-04-28T10:06:12;100884.81;;;21.11;37.14
26697;BME280;14312;52.614;13.496;2023-04-28T10:08:59;100885.34;;;21.13;37.45
26697;BME280;14312;52.614;13.496;2023-04-28T10:11:46;100877.91;;;21.19;36.92
26697;BME280;14312;52.614;13.496;2023-04-28T10:14:33;100877.50;;;21.25;37.24
26697;BME280;14312;52.614;13.496;2023-04-28T10:17:21;100870.88;;;21.31;36.68
26697;BME280;14312;52.614;13.496;2023-04-28T10:20:07;100864.81;;;21.34;37.38
26697;BME280;14312;52.614;13.496;2023-04-28T10:25:48;100870.03;;;21.44;35.08
26697;BME280;14312;52.614;13.496;2023-04-28T10:28:43;100863.59;;;21.40;35.25
26697;BME280;14312;52.614;13.496;2023-04-28T10:31:30;100858.81;;;21.37;35.50
26697;BME280;14312;52.614;13.496;2023-04-28T10:34:22;100853.84;;;21.39;35.44
26697;BME280;14312;52.614;13.496;2023-04-28T10:37:10;100846.22;;;21.41;35.58
26697;BME280;14312;52.614;13.496;2023-04-28T10:40:30;100851.28;;;21.57;35.26
26697;BME280;14312;52.614;13.496;2023-04-28T10:43:38;100840.81;;;21.64;35.31
26697;BME280;14312;52.614;13.496;2023-04-28T10:46:24;100847.22;;;21.68;35.19
26697;BME280;14312;52.614;13.496;2023-04-28T10:49:10;100831.94;;;21.72;35.36
26697;BME280;14312;52.614;13.496;2023-04-28T10:51:56;100826.38;;;21.77;35.40
26697;BME280;14312;52.614;13.496;2023-04-28T11:04:09;100824.88;;;22.15;35.62
26697;BME280;14312;52.614;13.496;2023-04-28T11:07:10;100817.28;;;22.35;35.50
26697;BME280;14312;52.614;13.496;2023-04-28T11:09:58;100817.97;;;22.49;35.90
26697;BME280;14312;52.614;13.496;2023-04-28T11:16:07;100825.13;;;22.84;35.44
26697;BME280;14312;52.614;13.496;2023-04-28T11:19:00;100814.91;;;22.98;34.77
26697;BME280;14312;52.614;13.496;2023-04-28T11:21:50;100809.16;;;23.09;35.27
26697;BME280;14312;52.614;13.496;2023-04-28T11:24:37;100808.84;;;23.19;34.92
26697;BME280;14312;52.614;13.496;2023-04-28T11:27:23;100792.84;;;23.26;34.79
26697;BME280;14312;52.614;13.496;2023-04-28T11:30:22;100795.38;;;23.31;34.66
26697;BME280;14312;52.614;13.496;2023-04-28T11:33:09;100795.56;;;23.26;34.27
26697;BME280;14312;52.614;13.496;2023-04-28T11:35:56;100800.84;;;23.22;34.54
26697;BME280;14312;52.614;13.496;2023-04-28T11:38:43;100799.72;;;23.15;34.06
26697;BME280;14312;52.614;13.496;2023-04-28T11:41:30;100795.72;;;23.03;33.91
26697;BME280;14312;52.614;13.496;2023-04-28T11:44:20;100792.22;;;22.94;34.24
26697;BME280;14312;52.614;13.496;2023-04-28T11:47:06;100789.28;;;22.82;34.30
26697;BME280;14312;52.614;13.496;2023-04-28T11:49:52;100783.53;;;22.75;34.30
26697;BME280;14312;52.614;13.496;2023-04-28T11:52:56;100787.97;;;22.71;35.01
26697;BME280;14312;52.614;13.496;2023-04-28T11:55:42;100783.81;;;22.65;34.39
26697;BME280;14312;52.614;13.496;2023-04-28T11:58:29;100788.28;;;22.61;34.64
26697;BME280;14312;52.614;13.496;2023-04-28T12:01:15;100782.38;;;22.59;34.91
26697;BME280;14312;52.614;13.496;2023-04-28T12:04:01;100779.66;;;22.59;34.63
26697;BME280;14312;52.614;13.496;2023-04-28T12:07:06;100780.59;;;22.63;34.40
26697;BME280;14312;52.614;13.496;2023-04-28T12:10:12;100772.94;;;22.65;34.67
26697;BME280;14312;52.614;13.496;2023-04-28T12:13:14;100769.91;;;22.66;34.31
26697;BME280;14312;52.614;13.496;2023-04-28T12:16:04;100770.69;;;22.67;34.08
26697;BME280;14312;52.614;13.496;2023-04-28T12:18:57;100774.22;;;22.67;34.14
26697;BME280;14312;52.614;13.496;2023-04-28T12:22:02;100767.19;;;22.66;34.36
26697;BME280;14312;52.614;13.496;2023-04-28T12:25:09;100760.47;;;22.64;34.50
26697;BME280;14312;52.614;13.496;2023-04-28T12:28:06;100761.09;;;22.61;34.41
26697;BME280;14312;52.614;13.496;2023-04-28T12:31:03;100756.31;;;22.58;34.31
26697;BME280;14312;52.614;13.496;2023-04-28T12:33:49;100753.72;;;22.53;34.27
26697;BME280;14312;52.614;13.496;2023-04-28T12:36:35;100752.78;;;22.49;34.08
26697;BME280;14312;52.614;13.496;2023-04-28T12:39:21;100750.84;;;22.41;34.37
26697;BME280;14312;52.614;13.496;2023-04-28T12:42:08;100748.44;;;22.31;34.24
26697;BME280;14312;52.614;13.496;2023-04-28T12:44:54;100736.75;;;22.21;33.86
26697;BME280;14312;52.614;13.496;2023-04-28T12:47:40;100740.84;;;22.10;34.37
26697;BME280;14312;52.614;13.496;2023-04-28T12:50:26;100734.59;;;22.01;34.73
26697;BME280;14312;52.614;13.496;2023-04-28T12:53:14;100727.38;;;21.97;34.63
26697;BME280;14312;52.614;13.496;2023-04-28T12:55:59;100734.53;;;21.93;34.67
26697;BME280;14312;52.614;13.496;2023-04-28T12:58:45;100735.16;;;21.89;35.18
26697;BME280;14312;52.614;13.496;2023-04-28T13:01:31;100733.06;;;21.86;35.15
26697;BME280;14312;52.614;13.496;2023-04-28T13:04:18;100719.31;;;21.83;35.03
26697;BME280;14312;52.614;13.496;2023-04-28T13:07:04;100724.59;;;21.79;35.20
26697;BME280;14312;52.614;13.496;2023-04-28T13:09:52;100722.16;;;21.78;35.34
26697;BME280;14312;52.614;13.496;2023-04-28T13:12:40;100717.56;;;21.78;35.54
26697;BME280;14312;52.614;13.496;2023-04-28T13:15:26;100713.88;;;21.83;35.24
26697;BME280;14312;52.614;13.496;2023-04-28T13:18:12;100705.63;;;21.88;35.21
26697;BME280;14312;52.614;13.496;2023-04-28T13:20:58;100707.09;;;21.94;35.25
26697;BME280;14312;52.614;13.496;2023-04-28T13:23:44;100705.84;;;22.00;35.25
26697;BME280;14312;52.614;13.496;2023-04-28T13:26:30;100702.69;;;22.07;35.50
26697;BME280;14312;52.614;13.496;2023-04-28T13:29:16;100695.38;;;22.16;35.45
26697;BME280;14312;52.614;13.496;2023-04-28T13:32:03;100690.28;;;22.23;35.50
26697;BME280;14312;52.614;13.496;2023-04-28T13:34:50;100685.00;;;22.26;35.32
26697;BME280;14312;52.614;13.496;2023-04-28T13:37:36;100677.03;;;22.30;35.22
26697;BME280;14312;52.614;13.496;2023-04-28T13:40:27;100676.22;;;22.30;35.17
26697;BME280;14312;52.614;13.496;2023-04-28T13:43:13;100671.72;;;22.25;35.06
26697;BME280;14312;52.614;13.496;2023-04-28T13:45:59;100681.47;;;22.17;35.13
26697;BME280;14312;52.614;13.496;2023-04-28T13:48:46;100682.72;;;22.11;35.14
26697;BME280;14312;52.614;13.496;2023-04-28T13:51:32;100671.53;;;22.04;35.24
26697;BME280;14312;52.614;13.496;2023-04-28T13:54:18;100661.44;;;21.96;35.21
26697;BME280;14312;52.614;13.496;2023-04-28T13:57:04;100663.78;;;21.89;35.31
26697;BME280;14312;52.614;13.496;2023-04-28T13:59:50;100659.16;;;21.81;35.25
26697;BME280;14312;52.614;13.496;2023-04-28T14:02:36;100662.16;;;21.71;35.37
26697;BME280;14312;52.614;13.496;2023-04-28T14:05:24;100658.59;;;21.62;35.54
26697;BME280;14312;52.614;13.496;2023-04-28T14:08:10;100658.06;;;21.51;35.58
26697;BME280;14312;52.614;13.496;2023-04-28T14:10:56;100651.31;;;21.40;35.58
26697;BME280;14312;52.614;13.496;2023-04-28T14:13:42;100650.47;;;21.31;35.67
26697;BME280;14312;52.614;13.496;2023-04-28T14:16:28;100649.94;;;21.20;35.59
26697;BME280;14312;52.614;13.496;2023-04-28T14:19:15;100646.97;;;21.08;36.18
26697;BME280;14312;52.614;13.496;2023-04-28T14:22:02;100649.91;;;20.98;35.92
26697;BME280;14312;52.614;13.496;2023-04-28T14:24:48;100649.56;;;20.91;36.05
26697;BME280;14312;52.614;13.496;2023-04-28T14:27:34;100647.09;;;20.81;35.83
26697;BME280;14312;52.614;13.496;2023-04-28T14:30:21;100640.81;;;20.71;35.19
26697;BME280;14312;52.614;13.496;2023-04-28T14:33:07;100640.06;;;20.57;35.03
26697;BME280;14312;52.614;13.496;2023-04-28T14:35:53;100642.13;;;20.38;35.22
26697;BME280;14312;52.614;13.496;2023-04-28T14:38:39;100633.31;;;20.19;35.85
26697;BME280;14312;52.614;13.496;2023-04-28T14:41:25;100630.34;;;20.07;35.65
26697;BME280;14312;52.614;13.496;2023-04-28T14:44:11;100637.16;;;19.90;36.55
26697;BME280;14312;52.614;13.496;2023-04-28T14:46:57;100630.47;;;19.74;36.47